Things To Keep In Mind With Our Used Selections

Our used items generally get added Monday through Friday. Generally they are added in the morning hours, however it isn't that usual for us to do them later in the day. We do not add new used items on the weekends.

Also please remember that we only have one of each item listed and they often times sell quickly. Call us at 541-683-6902 to have an item held, or order directly from the website.


If you would like to look at the new used arrivals for a different date, click on the day you want on the calendar at the right.

prev month NOV - 2018 next month  
Su Mo Tu We Th Fr Sa
123
45678910
11121314151617
18192021222324
252627282930

Displaying New Used Arrivals On 11/7/2018
Item#   Label Media Arrived Artist Title Price
11104978535  USED11/7/2018  1000 Mona LisasNew disease$4.95
11104978145  USED11/7/2018  2 UnlimitedGet Ready$4.95
11104978165  USED11/7/2018  2 UnlimitedReal Things$4.95
11104978435  USED11/7/2018  Ace Of BaseBridge$4.95
11104978395  USED11/7/2018  Ace of BaseSign$5.95
11104975535  USED11/7/2018  Anger ./ Higbie QuinteteLive at Montreux$3.00
11104978515  USED11/7/2018  B-52'sTime Capsule: Greatest Hits$6.95
11104978495  USED11/7/2018  BerlinBest of$5.95
11104977205  USED11/7/2018  BLIND SIDE (2009) BLIND SIDE (2009) / (WS AC3 DOL ECOA)$3.95
11104978275  USED11/7/2018  Bone Thugs & harmonyCreepin on ah Come Up$6.95
11104978235  USED11/7/2018  Bow WowUnleashed$5.95
11104977275  USED11/7/2018  BREAKFAST CLUB (2PC) (W/DVD) / (DIGC SLBREAKFAST CLUB (2PC) (W/DVD) / (DIGC SLIP WS)$4.95
11104975495  USED11/7/2018  Buffett PeterWaiting$3.00
11104978315  USED11/7/2018  ColdCold$5.95
11104975605  USED11/7/2018  Cossu ScottReunion$3.00
11104975555  USED11/7/2018  Cromarty GeorgeWind In the Heather$3.00
11104978205  USED11/7/2018  Crucial ConflictFinal Tic$6.95
11104978565  USED11/7/2018  Culture BeatHorizon$4.95
11104978405  USED11/7/2018  Cypress HillCypress Hill 3: Temple of Boom$5.95
11104977295  USED11/7/2018  Day After Tomorrow (2004)Day After Tomorrow (2004) / (WS Dub Sub Dol DTS)$3.95
11104977335  USED11/7/2018  Day the Earth Stood StillDay the Earth Stood Still$3.95
11104978245  USED11/7/2018  DJ Jazzy Jeff & Fresh PrinceHomebase$5.95
11104978135  USED11/7/2018  DopeLife$5.95
11104977255  USED11/7/2018  DR NO (1962) / (WS DUB SUB AC3 DOL RPKGDR NO (1962) / (WS DUB SUB AC3 DOL RPKG SEN)$3.95
11104977195  USED11/7/2018  FASTER (2010) / (WS AC3 DOL)FASTER (2010) / (WS AC3 DOL)$3.95
11104978355  USED11/7/2018  Fear FactoryArchetype (Bonus DVD) (LTD)$6.95
11104977325  USED11/7/2018  First BloodFirst Blood$3.95
11104977235  USED11/7/2018  FIST FIGHT / (AC3 DOL DUB ECOA SUB)FIST FIGHT / (AC3 DOL DUB ECOA SUB)$3.95
11104977245  USED11/7/2018  GREENING OF WHITNEY BROWN / (DOL WS)GREENING OF WHITNEY BROWN / (DOL WS)$3.95
11104975515  USED11/7/2018  Hecht DanielWillow$3.00
11104977225  USED11/7/2018  HOMEFRONT / (SNAP)HOMEFRONT / (SNAP)$3.95
11104978115  USED11/7/2018  HungerCinematic Superthug$5.95
11104978465  USED11/7/2018  HungerDevil Thumbs A Ride$6.95
11104975475  USED11/7/2018  Isham MarkCastalia$3.00
11104978175  USED11/7/2018  Ja RuleVenni Vetti Vecci$5.95
11104978425  USED11/7/2018  Jackson MichaelBad$5.95
11104978375  USED11/7/2018  Jackson MichaelBlood On the Dance Floor / History in the Mix$6.95
11104978215  USED11/7/2018  Jackson MichaelDangerous$5.95
11104978365  USED11/7/2018  Jackson MichaelInvincible$5.95
11104978385  USED11/7/2018  JackylJackyl$5.95
11104978225  USED11/7/2018  Kool KeithBlack Elvis / Lost in Space$6.95
11104978525  USED11/7/2018  Limp BizkitNew Old Songs$6.95
11104978335  USED11/7/2018  Limp BizkitResults May Vary (Bonus DVD) (LTD)$6.95
11104977305  USED11/7/2018  Longest Yard (2005) / (Full)Longest Yard (2005) / (Full)$3.95
11104978125  USED11/7/2018  Lost BoyzLegal Drug Money$5.95
11104978475  USED11/7/2018  Lost BoyzLove Peace And Nappiness$5.95
11104978485  USED11/7/2018  M.C. BrainsLoverslane$4.95
11104978255  USED11/7/2018  MC HammerPlease Hammer Don't Hurt Em$5.95
11104978195  USED11/7/2018  Mo ThugsFamily Scriptures$5.95
11104978445  USED11/7/2018  Motley CrueDecade of Decadence$6.95
11104975455  USED11/7/2018  Narell AndyStickman$3.00
11104978415  USED11/7/2018  NERDIn Search of..$6.95
11104978295  USED11/7/2018  Nine Inch NailsBroken$5.95
11104978265  USED11/7/2018  OrgyCandyass$5.95
11104978155  USED11/7/2018  PoeHello$6.95
11104978455  USED11/7/2018  Power StationPower Station$5.95
11104978285  USED11/7/2018  ProngRude Awakening$5.95
11104977345  USED11/7/2018  RAMBO: FIRST BLOOD 2 / (AC3 DOL DTS DUBRAMBO: FIRST BLOOD 2 / (AC3 DOL DTS DUB SUB WS)$4.95
11104977215  USED11/7/2018  RUSH HOUR & RUSH HOUR 2 / (RPKG WS)RUSH HOUR & RUSH HOUR 2 / (RPKG WS)$3.95
11104975595  USED11/7/2018  Santabear's First ChristmasSantabear's First Christmas - Soundtrack$3.00
11104975625  USED11/7/2018  ShadowfaxDreams of Children$3.00
11104975485  USED11/7/2018  ShadowfaxShadowdance$3.00
11104977285  USED11/7/2018  SNITCH / (UVDC DIGC ECOA)SNITCH / (UVDC DIGC ECOA)$3.95
11104975465  USED11/7/2018  Tingstad Eric / Lanz David / Rumbel NanWoodlands$3.00
11104978575  USED11/7/2018  Total Dance Explosion / VariousTotal Dance Explosion / Various$5.95
11104975505  USED11/7/2018  Various Windham HillSoul of the Machine$3.00
11104975565  USED11/7/2018  Winter PaulWintersong$3.00
11104978325  USED11/7/2018  Wu-Tang Clanw$6.95
11104978555  USED11/7/2018  Young MCBrainstorm$4.95